Time;durP1;ratioP1;P1;durP2;ratioP2;P2;SDS_P1;SDS_P2;PMS_P1;PMS_P2;Temp;Humidity;BMP_temperature;BMP_pressure;BME280_temperature;BME280_humidity;BME280_pressure;Samples;Min_cycle;Max_cycle;Signal;HPM_P1;HPM_P2
2023/04/13 06:56:20;;;;;;;7.30;2.17;;;8.70;99.90;;;;;;5071062;28;20555;-72
2023/04/13 06:58:46;;;;;;;6.53;1.77;;;8.60;99.90;;;;;;5070446;28;20572;-72
2023/04/13 07:01:12;;;;;;;4.03;1.55;;;8.80;99.90;;;;;;5069543;28;20174;-72
2023/04/13 07:03:37;;;;;;;6.47;2.58;;;8.90;99.90;;;;;;5069707;28;20207;-72
2023/04/13 07:06:04;;;;;;;3.55;1.45;;;9.00;99.90;;;;;;5069339;28;20201;-72
2023/04/13 07:08:31;;;;;;;7.20;1.90;;;9.20;99.90;;;;;;5069570;28;20204;-72
2023/04/13 07:10:57;;;;;;;10.32;1.90;;;9.20;99.90;;;;;;5070809;28;20193;-72
2023/04/13 07:13:23;;;;;;;3.38;1.48;;;9.30;99.90;;;;;;5070777;28;20204;-72
2023/04/13 07:15:50;;;;;;;4.40;1.88;;;9.40;99.90;;;;;;5070565;28;20668;-72
2023/04/13 07:18:16;;;;;;;4.50;2.30;;;9.50;99.90;;;;;;5069222;28;20166;-72
2023/04/13 07:20:42;;;;;;;7.40;2.17;;;9.70;99.90;;;;;;5069552;28;20177;-72
2023/04/13 07:23:08;;;;;;;2.53;1.70;;;9.90;99.90;;;;;;5069078;28;20228;-72
2023/04/13 07:25:34;;;;;;;7.20;2.75;;;10.00;99.90;;;;;;5068937;28;20184;-72
2023/04/13 07:27:59;;;;;;;7.38;2.13;;;10.10;99.90;;;;;;5069216;28;20204;-72
2023/04/13 07:30:25;;;;;;;7.80;2.67;;;10.10;99.90;;;;;;5068896;28;20216;-72
2023/04/13 07:32:52;;;;;;;6.53;2.30;;;10.10;99.90;;;;;;5070228;28;20173;-72
2023/04/13 07:35:17;;;;;;;7.72;4.47;;;10.00;99.90;;;;;;5070252;28;20205;-72
2023/04/13 07:37:45;;;;;;;6.40;2.33;;;10.10;99.90;;;;;;5069327;28;20212;-72
2023/04/13 07:40:11;;;;;;;6.18;2.65;;;10.00;99.90;;;;;;5070001;28;20173;-72
2023/04/13 07:42:37;;;;;;;5.95;3.17;;;10.00;99.90;;;;;;5068685;28;20174;-72
2023/04/13 07:45:05;;;;;;;4.97;2.20;;;10.10;99.90;;;;;;5068519;28;20212;-72
2023/04/13 07:47:31;;;;;;;8.05;2.88;;;10.00;99.90;;;;;;5068359;28;20193;-72
2023/04/13 07:49:57;;;;;;;7.97;2.88;;;10.00;99.90;;;;;;5068847;28;20178;-72
2023/04/13 07:52:23;;;;;;;6.60;2.33;;;10.00;99.90;;;;;;5068407;28;20174;-72
2023/04/13 07:54:48;;;;;;;7.75;2.20;;;10.10;99.90;;;;;;5068641;28;20229;-72
2023/04/13 07:57:16;;;;;;;7.22;3.55;;;10.10;99.90;;;;;;5068529;28;20202;-72
2023/04/13 07:59:42;;;;;;;732.53;78.03;;;10.10;99.90;;;;;;5069490;28;20591;-72
2023/04/13 08:02:11;;;;;;;437.65;45.58;;;10.40;99.90;;;;;;5068244;28;20174;-72
2023/04/13 08:04:36;;;;;;;777.95;73.75;;;10.50;99.90;;;;;;5068655;28;20688;-72
2023/04/13 08:07:06;;;;;;;31.83;4.85;;;10.80;99.90;;;;;;5059337;28;20219;-72
2023/04/13 08:09:36;;;;;;;21.45;6.05;;;10.90;99.90;;;;;;5056073;28;20162;-72
2023/04/13 08:12:02;;;;;;;87.10;13.55;;;11.10;99.90;;;;;;5055097;28;20174;-72
2023/04/13 08:14:28;;;;;;;625.55;67.00;;;11.40;99.90;;;;;;5054873;28;20530;-72
2023/04/13 08:16:57;;;;;;;49.72;8.18;;;11.80;99.90;;;;;;5055057;28;20194;-72
2023/04/13 08:19:22;;;;;;;40.65;6.57;;;11.90;99.90;;;;;;5056756;28;20178;-72
2023/04/13 08:21:49;;;;;;;13.93;3.13;;;11.90;99.40;;;;;;5056144;28;20331;-72
2023/04/13 08:24:15;;;;;;;10.77;2.75;;;11.70;99.20;;;;;;5054948;28;20213;-72
2023/04/13 08:26:40;;;;;;;6.00;2.15;;;11.50;99.30;;;;;;5054614;28;20186;-72
2023/04/13 08:29:06;;;;;;;7.22;2.05;;;11.30;99.90;;;;;;5054796;28;20174;-72
2023/04/13 08:31:31;;;;;;;8.10;2.30;;;11.00;99.60;;;;;;5054467;28;20236;-72
2023/04/13 08:33:57;;;;;;;6.35;1.88;;;10.90;99.90;;;;;;5054540;28;20208;-72
2023/04/13 08:36:23;;;;;;;5.10;2.17;;;10.90;99.90;;;;;;5054615;28;20201;-72
2023/04/13 08:38:48;;;;;;;6.22;2.10;;;10.70;99.90;;;;;;5054597;28;20617;-72
2023/04/13 08:41:16;;;;;;;4.47;2.25;;;10.80;99.90;;;;;;5054486;28;20272;-72
2023/04/13 08:47:04;;;;;;;6.63;1.85;;;10.80;99.60;;;;;;5055711;28;20236;-72
2023/04/13 08:49:31;;;;;;;9.40;2.42;;;10.70;99.30;;;;;;5054289;28;20210;-72
2023/04/13 08:51:58;;;;;;;8.32;2.30;;;10.80;99.90;;;;;;5055478;28;20170;-72
2023/04/13 08:54:27;;;;;;;5.50;1.98;;;10.70;99.50;;;;;;5055429;28;20195;-72
2023/04/13 08:56:53;;;;;;;9.57;2.38;;;10.70;99.80;;;;;;5055006;28;20212;-72
2023/04/13 08:59:21;;;;;;;4.03;2.00;;;10.60;99.90;;;;;;5054092;28;20178;-72
2023/04/13 09:01:47;;;;;;;8.80;2.30;;;10.60;99.90;;;;;;5053992;28;20185;-72
2023/04/13 09:04:18;;;;;;;6.40;1.80;;;10.80;99.90;;;;;;5055436;28;20178;-72
2023/04/13 09:06:46;;;;;;;5.72;2.22;;;11.10;99.90;;;;;;5053878;28;20220;-72
2023/04/13 09:09:13;;;;;;;9.20;2.22;;;11.10;99.40;;;;;;5054267;28;20261;-72
2023/04/13 09:11:40;;;;;;;5.53;1.83;;;11.00;99.90;;;;;;5055134;28;20265;-72
2023/04/13 09:14:07;;;;;;;9.95;2.40;;;10.90;99.90;;;;;;5053840;28;20174;-73
2023/04/13 09:16:41;;;;;;;5.88;2.30;;;11.00;99.90;;;;;;5054008;28;20201;-73
2023/04/13 09:19:07;;;;;;;2.92;1.70;;;11.20;99.90;;;;;;5053609;28;20182;-72
2023/04/13 09:21:38;;;;;;;6.25;2.20;;;11.50;99.80;;;;;;5054392;28;20188;-73
2023/04/13 09:24:04;;;;;;;5.07;2.10;;;11.70;99.40;;;;;;5053851;28;20188;-73
2023/04/13 09:26:45;;;;;;;5.65;1.92;;;11.70;97.70;;;;;;5054304;28;20656;-73
2023/04/13 09:29:53;;;;;;;6.28;1.90;;;11.80;98.40;;;;;;5053480;28;20192;-72
2023/04/13 09:32:23;;;;;;;7.05;2.10;;;11.50;98.40;;;;;;5053585;28;20186;-73
2023/04/13 09:35:19;;;;;;;8.93;2.13;;;11.40;99.10;;;;;;5053749;28;20174;-72
2023/04/13 09:37:46;;;;;;;5.68;1.88;;;11.30;98.50;;;;;;5054318;28;20205;-72
2023/04/13 09:40:17;;;;;;;6.10;1.80;;;11.10;99.00;;;;;;5040350;28;20179;-72
2023/04/13 09:43:10;;;;;;;6.20;2.10;;;10.90;99.30;;;;;;5033338;28;20187;-72
2023/04/13 09:45:37;;;;;;;4.43;1.70;;;10.80;99.30;;;;;;5038454;28;20273;-72
2023/04/13 09:51:42;;;;;;;7.50;3.10;;;10.70;99.80;;;;;;5034546;28;20305;-72
2023/04/13 09:54:10;;;;;;;5.30;1.70;;;10.60;99.40;;;;;;5038318;28;20189;-72
2023/04/13 09:56:53;;;;;;;4.32;1.92;;;10.80;99.60;;;;;;5053384;28;20256;-72
2023/04/13 09:59:23;;;;;;;5.47;1.80;;;10.90;99.20;;;;;;5052980;28;20166;-73
2023/04/13 10:02:02;;;;;;;6.63;1.83;;;11.20;99.60;;;;;;5053278;28;20170;-73
2023/04/13 10:04:33;;;;;;;6.75;1.83;;;11.20;98.30;;;;;;5047156;28;20276;-72
2023/04/13 10:06:59;;;;;;;9.50;1.60;;;11.10;98.00;;;;;;5053011;28;20243;-72
2023/04/13 10:09:30;;;;;;;3.95;1.70;;;11.00;97.80;;;;;;5045517;28;20175;-72
2023/04/13 10:11:58;;;;;;;3.22;1.70;;;11.00;97.90;;;;;;5032730;28;20175;-72
2023/04/13 10:18:31;;;;;;;4.05;1.60;;;11.10;97.00;;;;;;5041419;28;20240;-73
2023/04/13 10:20:58;;;;;;;8.13;1.90;;;11.20;96.80;;;;;;5049926;28;20171;-72
2023/04/13 10:23:26;;;;;;;8.63;1.75;;;11.20;97.20;;;;;;5032938;28;20206;-73
2023/04/13 10:26:16;;;;;;;7.68;2.10;;;11.40;97.20;;;;;;5032339;28;20554;-73
2023/04/13 10:28:43;;;;;;;7.68;2.00;;;11.40;96.60;;;;;;5033327;28;20525;-73
2023/04/13 10:31:09;;;;;;;4.53;1.75;;;11.40;96.10;;;;;;5032673;28;20177;-72
2023/04/13 10:33:48;;;;;;;10.85;2.95;;;11.30;96.40;;;;;;5044502;28;20245;-72
2023/04/13 10:36:14;;;;;;;6.47;2.17;;;11.10;97.30;;;;;;5052910;28;20289;-72
2023/04/13 10:38:44;;;;;;;8.82;2.88;;;11.40;98.20;;;;;;5052248;28;20202;-73
2023/04/13 10:41:21;;;;;;;7.55;2.35;;;11.80;97.30;;;;;;5052548;28;20268;-73
2023/04/13 10:43:47;;;;;;;6.80;1.85;;;12.30;97.40;;;;;;5052427;28;20204;-73
2023/04/13 10:46:13;;;;;;;4.60;1.80;;;12.40;95.20;;;;;;5053541;28;20237;-73
2023/04/13 10:48:42;;;;;;;6.32;2.17;;;12.40;95.00;;;;;;5053768;28;20610;-73
2023/04/13 10:51:07;;;;;;;5.15;1.90;;;12.40;95.20;;;;;;5052756;28;20189;-73
2023/04/13 10:53:34;;;;;;;7.53;2.35;;;12.30;95.90;;;;;;5052233;28;20182;-73
2023/04/13 10:56:03;;;;;;;7.82;2.33;;;12.40;95.80;;;;;;5051975;28;20214;-73
2023/04/13 10:58:33;;;;;;;5.18;1.95;;;12.50;94.60;;;;;;5053810;28;20181;-73
2023/04/13 11:00:59;;;;;;;6.25;2.13;;;12.60;94.40;;;;;;5053709;28;20178;-73
2023/04/13 11:03:28;;;;;;;5.22;1.98;;;12.50;94.00;;;;;;5053774;28;20200;-73
2023/04/13 11:05:58;;;;;;;4.40;1.85;;;12.40;94.30;;;;;;5051959;28;20222;-73
2023/04/13 11:08:26;;;;;;;5.40;2.13;;;12.40;95.30;;;;;;5052014;28;20235;-73
2023/04/13 11:10:56;;;;;;;6.30;2.08;;;12.00;95.20;;;;;;5052093;28;20208;-73
2023/04/13 11:13:25;;;;;;;3.70;1.42;;;11.80;95.90;;;;;;5052323;28;20268;-73
2023/04/13 11:16:00;;;;;;;3.78;1.70;;;11.60;96.60;;;;;;5051923;28;20281;-73
2023/04/13 11:18:26;;;;;;;3.42;1.33;;;11.40;98.40;;;;;;5052915;28;20177;-73
2023/04/13 11:20:52;;;;;;;4.47;1.65;;;11.50;97.60;;;;;;5051963;28;20182;-73
2023/04/13 11:23:18;;;;;;;5.15;1.65;;;11.80;97.60;;;;;;5052162;28;20228;-73
2023/04/13 11:25:58;;;;;;;4.85;2.17;;;12.30;96.70;;;;;;5051732;28;20282;-73
2023/04/13 11:28:46;;;;;;;5.32;1.80;;;12.50;96.50;;;;;;5051873;28;20201;-73
2023/04/13 11:31:12;;;;;;;8.00;1.83;;;12.80;96.30;;;;;;5052248;28;20170;-73
2023/04/13 11:33:39;;;;;;;7.53;1.67;;;13.00;95.70;;;;;;5052239;28;20224;-73
2023/04/13 11:36:10;;;;;;;5.90;2.10;;;13.10;94.80;;;;;;5051656;28;20688;-73
2023/04/13 11:38:38;;;;;;;4.43;1.50;;;13.20;95.60;;;;;;5052616;28;20227;-73
2023/04/13 11:41:05;;;;;;;12.13;2.08;;;13.40;94.90;;;;;;5053350;28;20644;-73
2023/04/13 11:43:33;;;;;;;5.53;1.85;;;13.30;94.20;;;;;;5055570;28;20235;-73
2023/04/13 11:46:02;;;;;;;3.20;1.80;;;13.20;94.10;;;;;;5055965;28;20212;-73
2023/04/13 11:48:28;;;;;;;4.13;1.92;;;12.90;95.40;;;;;;5056261;28;20225;-73
2023/04/13 11:51:13;;;;;;;4.93;2.10;;;12.80;96.10;;;;;;5057123;28;20590;-73
2023/04/13 11:53:39;;;;;;;4.28;2.20;;;12.80;96.40;;;;;;5055320;28;20181;-73
2023/04/13 11:56:06;;;;;;;3.92;1.90;;;12.50;96.00;;;;;;5055060;28;20218;-73
2023/04/13 11:58:31;;;;;;;3.92;1.55;;;12.40;96.00;;;;;;5055494;28;20178;-73
2023/04/13 12:00:57;;;;;;;3.25;1.60;;;12.30;96.20;;;;;;5056435;28;20175;-73
2023/04/13 12:03:23;;;;;;;5.45;2.22;;;12.20;96.30;;;;;;5055508;28;20182;-73
2023/04/13 12:06:00;;;;;;;3.13;1.52;;;12.20;96.20;;;;;;5055344;28;20210;-73
2023/04/13 12:08:26;;;;;;;4.28;1.80;;;12.10;96.10;;;;;;5055152;28;20197;-73
2023/04/13 12:11:04;;;;;;;4.15;1.60;;;12.30;95.90;;;;;;5055388;28;20205;-73
2023/04/13 12:13:52;;;;;;;4.57;1.67;;;12.20;95.60;;;;;;5056251;28;20154;-73
2023/04/13 12:16:28;;;;;;;11.07;2.05;;;12.20;95.10;;;;;;5054889;28;20289;-73
2023/04/13 12:18:54;;;;;;;2.97;1.80;;;12.20;95.40;;;;;;5055879;28;20220;-74
2023/04/13 12:21:21;;;;;;;6.10;1.67;;;12.40;95.60;;;;;;5055744;28;20202;-74
2023/04/13 12:23:53;;;;;;;5.90;1.58;;;12.50;94.60;;;;;;5055163;28;20182;-74
2023/04/13 12:26:18;;;;;;;8.00;1.90;;;12.70;94.60;;;;;;5054731;28;20206;-74
2023/04/13 12:28:48;;;;;;;4.65;1.77;;;12.80;95.10;;;;;;5055082;28;20174;-74
2023/04/13 12:31:15;;;;;;;4.45;1.45;;;12.80;94.20;;;;;;5054719;28;20178;-74
2023/04/13 12:33:40;;;;;;;5.50;1.55;;;12.80;94.40;;;;;;5054402;28;20178;-73
2023/04/13 12:36:10;;;;;;;4.32;1.67;;;12.60;94.70;;;;;;5054583;28;20206;-73
2023/04/13 12:38:37;;;;;;;3.22;1.35;;;12.40;94.70;;;;;;5055007;28;20265;-74
2023/04/13 12:41:06;;;;;;;2.30;1.30;;;12.40;94.90;;;;;;5057791;28;20170;-74
2023/04/13 12:43:32;;;;;;;19.00;3.20;;;12.60;95.90;;;;;;5059104;28;20189;-74
2023/04/13 12:45:57;;;;;;;8.30;1.70;;;12.90;94.60;;;;;;5060755;28;20222;-74
2023/04/13 12:48:23;;;;;;;6.75;1.50;;;13.20;93.50;;;;;;5060544;28;20201;-74
2023/04/13 12:50:49;;;;;;;2.35;1.40;;;13.20;93.20;;;;;;5060398;28;20239;-74
2023/04/13 12:53:15;;;;;;;6.00;1.55;;;13.20;93.20;;;;;;5059968;28;20186;-74
2023/04/13 12:55:41;;;;;;;6.90;1.90;;;13.20;92.50;;;;;;5060591;28;20198;-74
2023/04/13 12:58:07;;;;;;;3.13;1.65;;;13.00;93.60;;;;;;5060623;28;20185;-74
2023/04/13 13:00:32;;;;;;;9.20;1.90;;;12.70;93.50;;;;;;5060156;28;20182;-74
2023/04/13 13:03:23;;;;;;;4.43;1.60;;;12.60;94.50;;;;;;5054305;28;20178;-74
2023/04/13 13:05:49;;;;;;;4.13;1.67;;;12.50;93.90;;;;;;5054027;28;20240;-74
2023/04/13 13:08:15;;;;;;;7.82;1.58;;;12.50;94.30;;;;;;5054004;28;20170;-74
2023/04/13 13:10:41;;;;;;;5.05;1.80;;;12.50;94.70;;;;;;5054527;28;20181;-74
2023/04/13 13:13:06;;;;;;;4.72;1.40;;;12.50;94.00;;;;;;5054421;28;20588;-74
2023/04/13 13:15:32;;;;;;;3.78;1.70;;;12.60;94.60;;;;;;5055291;28;20174;-74
2023/04/13 13:18:01;;;;;;;3.13;1.40;;;12.70;93.50;;;;;;5054834;28;20178;-74
2023/04/13 13:20:27;;;;;;;2.17;1.30;;;12.80;94.10;;;;;;5054109;28;20640;-74
2023/04/13 13:22:53;;;;;;;2.95;1.45;;;12.90;93.90;;;;;;5054271;28;20255;-74
2023/04/13 13:25:18;;;;;;;6.93;1.38;;;13.10;93.50;;;;;;5054626;28;20202;-73
2023/04/13 13:27:44;;;;;;;12.68;1.77;;;13.10;93.00;;;;;;5053412;28;20577;-73
2023/04/13 13:30:10;;;;;;;4.15;1.58;;;13.00;92.70;;;;;;5054079;28;20174;-73
2023/04/13 13:32:36;;;;;;;3.65;1.50;;;12.80;93.30;;;;;;5054920;28;20174;-73
2023/04/13 13:35:02;;;;;;;4.55;1.58;;;12.70;93.70;;;;;;5053415;28;20177;-73
2023/04/13 13:37:38;;;;;;;8.38;1.60;;;12.50;93.80;;;;;;5054498;28;20194;-73
2023/04/13 13:40:11;;;;;;;21.35;1.90;;;12.40;94.30;;;;;;5053372;28;20204;-72
2023/04/13 13:42:56;;;;;;;22.33;2.65;;;12.50;95.10;;;;;;5054120;28;20541;-72
2023/04/13 13:49:16;;;;;;;4.45;1.50;;;12.90;93.70;;;;;;5054709;28;20177;-72
2023/04/13 13:52:35;;;;;;;6.32;1.70;;;13.30;92.40;;;;;;5053108;28;20249;-73
2023/04/13 13:55:00;;;;;;;14.18;2.20;;;13.50;92.50;;;;;;5053658;28;20264;-73
2023/04/13 13:57:33;;;;;;;12.05;1.92;;;13.50;91.10;;;;;;5052884;28;20244;-72
2023/04/13 13:59:59;;;;;;;3.03;1.48;;;13.60;91.00;;;;;;5053273;28;20170;-73
2023/04/13 14:02:25;;;;;;;10.02;1.92;;;13.70;90.60;;;;;;5054073;28;20223;-73
2023/04/13 14:08:35;;;;;;;3.30;1.60;;;13.70;91.60;;;;;;5054199;28;20242;-73
2023/04/13 14:11:02;;;;;;;4.90;1.73;;;13.70;90.90;;;;;;5053686;28;20273;-73
2023/04/13 14:13:29;;;;;;;5.60;1.40;;;13.40;91.10;;;;;;5053793;28;20171;-73
2023/04/13 14:15:55;;;;;;;2.80;1.52;;;13.40;90.70;;;;;;5053388;28;20198;-73
2023/04/13 14:18:22;;;;;;;2.67;1.17;;;13.30;90.40;;;;;;5052563;28;20250;-73
2023/04/13 14:20:49;;;;;;;3.25;1.20;;;13.30;91.20;;;;;;5052622;28;20189;-73
2023/04/13 14:23:15;;;;;;;7.13;1.55;;;13.50;90.70;;;;;;5052499;28;20530;-73
2023/04/13 14:25:41;;;;;;;4.47;1.35;;;13.70;91.10;;;;;;5052399;28;20215;-80
2023/04/13 14:28:07;;;;;;;3.22;1.20;;;13.70;89.60;;;;;;5053363;28;20256;-72
2023/04/13 14:30:34;;;;;;;2.65;1.30;;;13.70;90.40;;;;;;5052471;28;20181;-73
2023/04/13 14:33:00;;;;;;;5.00;1.30;;;13.80;90.10;;;;;;5052464;28;20170;-73
2023/04/13 14:35:26;;;;;;;9.85;1.80;;;13.80;90.20;;;;;;5052271;28;20682;-73
2023/04/13 14:37:52;;;;;;;5.13;1.50;;;14.00;90.60;;;;;;5052614;28;20182;-73
2023/04/13 14:40:20;;;;;;;7.45;1.38;;;14.00;89.50;;;;;;5053161;28;20185;-73
2023/04/13 14:42:46;;;;;;;3.88;1.50;;;13.90;88.90;;;;;;5053520;28;20178;-73
2023/04/13 14:45:12;;;;;;;2.72;1.17;;;13.70;89.60;;;;;;5052594;28;20202;-73
2023/04/13 14:47:38;;;;;;;2.78;1.23;;;13.60;89.80;;;;;;5052175;28;20194;-73
2023/04/13 14:50:05;;;;;;;1.85;1.15;;;13.50;89.20;;;;;;5052139;28;20185;-73
2023/04/13 14:52:30;;;;;;;4.60;1.30;;;13.50;88.80;;;;;;5052067;28;20206;-73
2023/04/13 14:54:56;;;;;;;2.13;1.40;;;13.30;88.70;;;;;;5052413;28;20225;-73
2023/04/13 14:57:22;;;;;;;3.90;1.67;;;13.20;90.00;;;;;;5053660;28;20676;-73
2023/04/13 14:59:48;;;;;;;6.70;1.50;;;13.10;90.40;;;;;;5052068;28;20178;-73
2023/04/13 15:02:19;;;;;;;5.18;1.58;;;13.20;90.80;;;;;;5052396;28;20190;-73
2023/04/13 15:04:57;;;;;;;8.32;1.45;;;13.10;91.00;;;;;;5051961;28;20668;-73
2023/04/13 15:07:29;;;;;;;2.83;1.52;;;13.20;90.40;;;;;;5052383;28;20189;-73
2023/04/13 15:09:57;;;;;;;8.70;1.23;;;13.10;91.10;;;;;;5052119;28;20204;-73
2023/04/13 15:12:53;;;;;;;8.57;1.77;;;13.10;91.50;;;;;;5051900;28;20170;-73
2023/04/13 15:15:33;;;;;;;3.55;1.30;;;12.90;91.40;;;;;;5051850;28;20170;-73
2023/04/13 15:17:59;;;;;;;10.23;1.55;;;12.60;92.60;;;;;;5056401;28;20559;-73
2023/04/13 15:20:25;;;;;;;3.00;1.00;;;12.40;93.20;;;;;;5056030;28;20178;-73
2023/04/13 15:22:53;;;;;;;7.03;1.67;;;12.00;93.50;;;;;;5056486;28;20178;-73
2023/04/13 15:25:19;;;;;;;7.20;1.40;;;11.90;94.00;;;;;;5057210;28;20205;-73
2023/04/13 15:27:50;;;;;;;1.42;1.10;;;11.70;94.50;;;;;;5057035;28;20198;-73
2023/04/13 15:30:27;;;;;;;1.77;0.90;;;11.70;94.60;;;;;;5057088;28;20193;-73
2023/04/13 15:32:57;;;;;;;3.72;1.17;;;11.70;94.40;;;;;;5056974;28;20165;-77
2023/04/13 15:35:24;;;;;;;20.90;1.88;;;11.70;94.50;;;;;;5055670;28;20549;-72
2023/04/13 15:37:50;;;;;;;8.93;1.48;;;11.70;94.50;;;;;;5056816;28;20182;-73
2023/04/13 15:40:17;;;;;;;6.38;1.10;;;11.60;95.30;;;;;;5056644;28;20617;-73
2023/04/13 15:42:42;;;;;;;4.38;1.30;;;11.60;94.80;;;;;;5056759;28;20231;-73
2023/04/13 15:45:08;;;;;;;3.38;1.20;;;11.50;95.90;;;;;;5056534;28;20289;-73
2023/04/13 15:47:35;;;;;;;2.53;0.90;;;11.40;96.20;;;;;;5056610;28;20218;-72
2023/04/13 15:50:03;;;;;;;2.75;1.40;;;11.30;96.50;;;;;;5055893;28;20179;-72
2023/04/13 15:52:29;;;;;;;2.13;1.20;;;11.30;96.70;;;;;;5056269;28;20524;-73
2023/04/13 15:54:54;;;;;;;1.77;1.00;;;11.20;96.60;;;;;;5055441;28;20201;-72
2023/04/13 15:57:20;;;;;;;2.10;0.98;;;11.20;96.60;;;;;;5055470;28;20199;-73
2023/04/13 15:59:46;;;;;;;0.93;0.90;;;11.10;97.10;;;;;;5055207;28;20214;-73
2023/04/13 16:02:11;;;;;;;2.42;0.90;;;11.00;96.70;;;;;;5055147;28;20205;-73
2023/04/13 16:04:37;;;;;;;0.45;0.45;;;10.60;96.80;;;;;;5055016;28;20202;-72
2023/04/13 16:07:02;;;;;;;0.30;0.30;;;10.20;97.00;;;;;;5055273;28;20269;-72
2023/04/13 16:09:29;;;;;;;1.58;0.63;;;10.00;97.20;;;;;;5055509;28;20167;-72
2023/04/13 16:11:55;;;;;;;0.63;0.63;;;9.60;98.60;;;;;;5054949;28;20163;-72
2023/04/13 16:14:21;;;;;;;0.63;0.52;;;9.30;99.10;;;;;;5055050;28;20174;-72
2023/04/13 16:16:51;;;;;;;0.82;0.60;;;9.30;99.50;;;;;;5055060;28;20191;-72
2023/04/13 16:19:17;;;;;;;0.70;0.50;;;9.30;99.90;;;;;;5055742;28;20166;-72
2023/04/13 16:21:44;;;;;;;0.73;0.30;;;9.20;99.90;;;;;;5054784;28;20208;-72
2023/04/13 16:24:10;;;;;;;1.48;0.68;;;9.30;99.90;;;;;;5054758;28;20178;-72
2023/04/13 16:26:37;;;;;;;0.95;0.40;;;9.10;99.90;;;;;;5054377;28;20214;-72
2023/04/13 16:29:03;;;;;;;1.52;0.30;;;9.10;99.90;;;;;;5054397;28;20178;-72
2023/04/13 16:31:29;;;;;;;0.77;0.40;;;9.20;99.90;;;;;;5054593;28;20177;-72
2023/04/13 16:33:55;;;;;;;1.00;1.00;;;9.20;99.90;;;;;;5055073;28;20170;-72
2023/04/13 16:36:24;;;;;;;0.40;0.40;;;9.20;99.90;;;;;;5054455;28;20260;-73
2023/04/13 16:38:51;;;;;;;0.60;0.60;;;9.20;99.90;;;;;;5054811;28;20239;-73
2023/04/13 16:41:16;;;;;;;4.43;0.60;;;9.20;99.90;;;;;;5051154;28;20201;-74
2023/04/13 16:43:42;;;;;;;0.95;0.52;;;9.10;99.90;;;;;;5055026;28;20640;-75
2023/04/13 16:46:07;;;;;;;0.70;0.70;;;9.10;99.90;;;;;;5054518;28;20214;-74
2023/04/13 16:48:33;;;;;;;0.75;0.75;;;9.00;99.90;;;;;;5054718;28;20174;-73
2023/04/13 16:51:01;;;;;;;1.17;0.80;;;8.90;99.90;;;;;;5054498;28;20177;-74
2023/04/13 16:53:27;;;;;;;1.38;0.65;;;8.90;99.90;;;;;;5054521;28;20256;-74
2023/04/13 16:55:52;;;;;;;1.17;0.63;;;8.80;99.90;;;;;;5054150;28;20252;-73
2023/04/13 16:58:18;;;;;;;0.70;0.50;;;8.70;99.90;;;;;;5055527;28;20206;-73
2023/04/13 17:00:44;;;;;;;0.93;0.77;;;8.80;99.90;;;;;;5054317;28;20178;-73
2023/04/13 17:03:09;;;;;;;0.68;0.68;;;8.80;99.90;;;;;;5054482;28;20201;-73
2023/04/13 17:05:35;;;;;;;0.65;0.60;;;8.70;99.90;;;;;;5054251;28;20664;-73
2023/04/13 17:08:02;;;;;;;2.28;0.52;;;8.70;99.90;;;;;;5054578;28;20212;-73
2023/04/13 17:10:28;;;;;;;0.98;0.50;;;8.50;99.90;;;;;;5054066;28;20650;-74
2023/04/13 17:12:54;;;;;;;2.25;0.68;;;8.40;99.90;;;;;;5054140;28;20178;-73
2023/04/13 17:15:20;;;;;;;0.70;0.70;;;8.30;99.90;;;;;;5055551;28;20174;-73
2023/04/13 17:17:46;;;;;;;1.80;0.88;;;8.30;99.90;;;;;;5054194;28;20205;-74
2023/04/13 17:20:12;;;;;;;1.00;0.90;;;8.40;99.90;;;;;;5056201;28;20628;-74
2023/04/13 17:22:37;;;;;;;1.30;0.73;;;8.40;99.90;;;;;;5053799;28;20206;-73
2023/04/13 17:25:03;;;;;;;2.05;0.88;;;8.50;99.90;;;;;;5053465;28;20283;-73
2023/04/13 17:27:29;;;;;;;1.58;0.73;;;8.40;99.90;;;;;;5054700;28;20194;-73
2023/04/13 17:29:56;;;;;;;7.03;2.50;;;8.40;99.90;;;;;;5053992;28;20190;-73
2023/04/13 17:32:22;;;;;;;3.13;1.75;;;8.50;99.90;;;;;;5053425;28;20254;-72
2023/04/13 17:34:48;;;;;;;10.75;6.63;;;8.40;99.90;;;;;;5054390;28;20278;-73
2023/04/13 17:37:14;;;;;;;5.38;3.60;;;8.40;99.90;;;;;;5053493;28;20248;-73
2023/04/13 17:39:45;;;;;;;4.18;3.13;;;8.40;99.90;;;;;;5052501;28;20182;-73
2023/04/13 17:42:10;;;;;;;2.10;1.90;;;8.30;99.90;;;;;;5054705;28;20161;-73
2023/04/13 17:44:36;;;;;;;1.10;1.10;;;8.30;99.90;;;;;;5053610;28;20171;-73
2023/04/13 17:47:02;;;;;;;1.25;1.15;;;8.30;99.90;;;;;;5053078;28;20198;-73
2023/04/13 17:49:28;;;;;;;0.82;0.82;;;8.30;99.90;;;;;;5054420;28;20180;-73
2023/04/13 17:51:53;;;;;;;0.90;0.80;;;8.20;99.90;;;;;;5054248;28;20269;-73
2023/04/13 17:54:19;;;;;;;0.82;0.82;;;8.10;99.90;;;;;;5053041;28;20220;-73
2023/04/13 17:56:46;;;;;;;1.20;1.10;;;8.00;99.90;;;;;;5053278;28;20210;-73
2023/04/13 17:59:13;;;;;;;2.20;1.88;;;8.00;99.90;;;;;;5053255;28;20182;-73
2023/04/13 18:01:41;;;;;;;6.38;4.85;;;7.90;99.90;;;;;;5053231;28;20265;-73
2023/04/13 18:04:10;;;;;;;9.30;5.03;;;7.80;99.90;;;;;;5052965;28;20174;-73
2023/04/13 18:06:35;;;;;;;18.98;5.35;;;7.70;99.90;;;;;;5053224;28;20210;-73
2023/04/13 18:09:01;;;;;;;11.15;3.25;;;7.70;99.90;;;;;;5052923;28;20565;-73
2023/04/13 18:11:26;;;;;;;4.22;1.98;;;7.70;99.90;;;;;;5052824;28;20175;-76
2023/04/13 18:13:52;;;;;;;15.90;3.20;;;7.70;99.90;;;;;;5052779;28;20269;-73
2023/04/13 18:16:17;;;;;;;7.18;2.58;;;7.70;99.90;;;;;;5052563;28;20205;-73
2023/04/13 18:18:45;;;;;;;9.70;2.88;;;7.40;99.90;;;;;;5052704;28;20181;-73
2023/04/13 18:21:11;;;;;;;11.85;2.67;;;7.30;99.90;;;;;;5052889;28;20294;-73
2023/04/13 18:23:37;;;;;;;4.97;2.10;;;7.20;99.90;;;;;;5052591;28;20269;-73
2023/04/13 18:26:03;;;;;;;3.90;1.73;;;7.20;99.90;;;;;;5052411;28;20292;-73
2023/04/13 18:28:28;;;;;;;3.38;2.05;;;7.10;99.90;;;;;;5053009;28;20174;-73
2023/04/13 18:31:04;;;;;;;2.42;2.10;;;7.10;99.90;;;;;;5052430;28;20194;-73
2023/04/13 18:33:30;;;;;;;4.97;2.10;;;6.90;99.90;;;;;;5052381;28;20196;-72
2023/04/13 18:35:56;;;;;;;2.55;1.40;;;6.90;99.90;;;;;;5052291;28;20212;-72
2023/04/13 18:38:22;;;;;;;3.67;1.63;;;6.80;99.90;;;;;;5052411;28;20265;-72
2023/04/13 18:40:49;;;;;;;2.15;1.00;;;6.80;99.90;;;;;;5052816;28;20178;-72
2023/04/13 18:43:15;;;;;;;0.80;0.80;;;6.70;99.90;;;;;;5052709;28;20178;-72
2023/04/13 18:45:40;;;;;;;0.80;0.80;;;6.70;99.90;;;;;;5052414;28;20240;-73
2023/04/13 18:48:08;;;;;;;0.80;0.80;;;6.70;99.90;;;;;;5052492;28;20189;-73
2023/04/13 18:50:34;;;;;;;4.93;1.80;;;6.70;99.90;;;;;;5047107;28;20170;-73
2023/04/13 18:53:00;;;;;;;4.78;3.97;;;6.60;99.90;;;;;;5032663;28;20175;-72
2023/04/13 18:55:27;;;;;;;6.38;2.67;;;6.50;99.90;;;;;;5033385;28;20205;-72
2023/04/13 18:57:54;;;;;;;4.78;2.88;;;6.40;99.90;;;;;;5033810;28;20182;-73
2023/04/13 19:00:20;;;;;;;6.32;4.85;;;6.30;99.90;;;;;;5035996;28;20198;-72
2023/04/13 19:02:50;;;;;;;4.90;3.90;;;6.30;99.90;;;;;;5038553;28;20187;-72
2023/04/13 19:05:18;;;;;;;4.88;4.20;;;6.40;99.90;;;;;;5031708;28;20301;-72
2023/04/13 19:07:57;;;;;;;7.57;5.43;;;6.40;99.90;;;;;;5031782;28;20206;-72
2023/04/13 19:10:23;;;;;;;6.43;4.32;;;6.30;99.90;;;;;;5033563;28;20184;-72
2023/04/13 19:12:48;;;;;;;9.20;6.38;;;6.20;99.90;;;;;;5031686;28;20183;-72
2023/04/13 19:15:14;;;;;;;6.85;5.35;;;6.20;99.90;;;;;;5035358;28;20368;-72
2023/04/13 19:17:40;;;;;;;7.38;4.07;;;6.10;99.90;;;;;;5035743;28;20228;-73
2023/04/13 19:20:09;;;;;;;4.60;3.00;;;6.00;99.90;;;;;;5031125;28;20181;-73
2023/04/13 19:22:35;;;;;;;5.07;2.55;;;6.00;99.90;;;;;;5031118;28;20587;-72
2023/04/13 19:25:00;;;;;;;4.10;3.00;;;6.10;99.90;;;;;;5029928;28;20230;-78
2023/04/13 19:27:27;;;;;;;4.43;3.30;;;6.00;99.90;;;;;;5032540;28;20238;-72
2023/04/13 19:29:53;;;;;;;3.58;3.20;;;6.10;99.90;;;;;;5032188;28;20184;-73
2023/04/13 19:32:23;;;;;;;7.05;3.33;;;6.00;99.90;;;;;;5032097;28;20182;-72
2023/04/13 19:34:49;;;;;;;5.03;3.50;;;6.10;99.90;;;;;;5031710;28;20604;-72
2023/04/13 19:37:15;;;;;;;6.35;5.32;;;6.00;99.90;;;;;;5033108;28;20207;-72
2023/04/13 19:39:41;;;;;;;3.47;3.00;;;5.90;99.90;;;;;;5031873;28;20262;-72
2023/04/13 19:42:07;;;;;;;3.20;2.47;;;5.70;99.90;;;;;;5033037;28;20250;-72
2023/04/13 19:44:32;;;;;;;3.53;2.20;;;5.80;99.90;;;;;;5032869;28;20187;-72
2023/04/13 19:46:58;;;;;;;5.13;1.88;;;5.80;99.90;;;;;;5032876;28;20195;-72
2023/04/13 19:49:25;;;;;;;3.33;2.20;;;5.80;99.90;;;;;;5031741;28;20261;-72
2023/04/13 19:52:38;;;;;;;2.15;2.03;;;5.80;99.90;;;;;;5032903;28;20511;-72
2023/04/13 19:55:04;;;;;;;3.00;2.60;;;5.70;99.90;;;;;;5032523;28;20194;-72
2023/04/13 19:57:29;;;;;;;4.75;4.20;;;5.70;99.90;;;;;;5031739;28;20199;-72
2023/04/13 19:59:55;;;;;;;7.30;4.20;;;5.50;99.90;;;;;;5031800;28;20229;-72
2023/04/13 20:02:21;;;;;;;3.97;3.58;;;5.50;99.90;;;;;;5032247;28;20716;-72
2023/04/13 20:04:50;;;;;;;3.25;2.92;;;5.50;99.90;;;;;;5035474;28;20298;-72
2023/04/13 20:07:16;;;;;;;3.60;3.15;;;5.40;99.90;;;;;;5035403;28;20190;-72